KDTL/DTL METAR and TAF weather

Enter ICAO airport designator
Station Type Date Time Source
KDTL METAR 2020/07/09 22:55 UTC NOAA

KDTL 092255Z AUTO 28009G19KT 10SM CLR 24/13 A2987 RMK AO2


Station Type Date Time Source
KDTL Decoded METAR 2020/07/09 22:55 UTC NOAA

Detroit Lakes, Detroit Lakes Airport-Wething Field, MN, United States (KDTL) 46-50N 095-53W
Jul 09, 2020 - 06:55 PM EDT / 2020.07.09 2255 UTC
Wind: from the W (280 degrees) at 10 MPH (9 KT) gusting to 22 MPH (19 KT):0
Visibility: 10 mile(s):0
Sky conditions: clear
Temperature: 75 F (24 C)
Dew Point: 55 F (13 C)
Relative Humidity: 50%
Pressure (altimeter): 29.87 in. Hg (1011 hPa)
ob: KDTL 092255Z AUTO 28009G19KT 10SM CLR 24/13 A2987 RMK AO2
cycle: 23

Station Type Date Time Source
KDTL TAF UTC NOAA

Error!

Example: see airport list